Time,TemperatureF,DewpointF,PressureIn,WindDirection,WindDirectionDegrees,WindSpeedMPH,WindSpeedGustMPH,Humidity,HourlyPrecipIn,Conditions,Clouds,dailyrainin,SoftwareType,DateUTC
2013-08-25 00:04:00,68.3,60.0,30.22,SW,232,2.0,8.0,74,0.00,,,0.00,weatherlink.com 1.10,2013-08-25 04:04:00,
2013-08-25 00:19:00,67.8,60.0,30.22,SW,217,1.0,7.0,75,0.00,,,0.00,weatherlink.com 1.10,2013-08-25 04:19:00,
2013-08-25 00:34:00,67.9,60.0,30.22,WSW,239,5.0,9.0,75,0.00,,,0.00,weatherlink.com 1.10,2013-08-25 04:34:00,
2013-08-25 00:50:00,68.0,59.0,30.22,WSW,243,4.0,8.0,74,0.00,,,0.00,weatherlink.com 1.10,2013-08-25 04:50:00,
2013-08-25 01:05:00,67.9,59.0,30.22,WSW,246,2.0,8.0,73,0.00,,,0.00,weatherlink.com 1.10,2013-08-25 05:05:00,
2013-08-25 01:20:00,67.4,59.0,30.22,SW,224,3.0,5.0,74,0.00,,,0.00,weatherlink.com 1.10,2013-08-25 05:20:00,
2013-08-25 01:35:00,67.1,59.0,30.22,SW,215,3.0,6.0,75,0.00,,,0.00,weatherlink.com 1.10,2013-08-25 05:35:00,
2013-08-25 01:50:00,66.8,59.0,30.22,WSW,238,2.0,5.0,76,0.00,,,0.00,weatherlink.com 1.10,2013-08-25 05:50:00,
2013-08-25 02:05:00,66.4,59.0,30.22,WSW,239,2.0,6.0,77,0.00,,,0.00,weatherlink.com 1.10,2013-08-25 06:05:00,
2013-08-25 02:20:00,66.1,59.0,30.22,SW,233,2.0,5.0,78,0.00,,,0.00,weatherlink.com 1.10,2013-08-25 06:20:00,
2013-08-25 02:35:00,65.7,59.0,30.22,SW,222,2.0,5.0,79,0.00,,,0.00,weatherlink.com 1.10,2013-08-25 06:35:00,
2013-08-25 02:50:00,65.3,59.0,30.23,SW,233,3.0,5.0,80,0.00,,,0.00,weatherlink.com 1.10,2013-08-25 06:50:00,
2013-08-25 03:05:00,64.9,59.0,30.22,SW,224,2.0,5.0,82,0.00,,,0.00,weatherlink.com 1.10,2013-08-25 07:05:00,
2013-08-25 03:20:00,64.7,59.0,30.22,SSW,212,2.0,5.0,83,0.00,,,0.00,weatherlink.com 1.10,2013-08-25 07:20:00,
2013-08-25 03:35:00,64.4,60.0,30.23,SW,224,3.0,7.0,84,0.00,,,0.00,weatherlink.com 1.10,2013-08-25 07:35:00,
2013-08-25 03:50:00,64.0,60.0,30.23,WSW,244,4.0,6.0,85,0.00,,,0.00,weatherlink.com 1.10,2013-08-25 07:50:00,
2013-08-25 04:05:00,63.7,60.0,30.23,SW,231,5.0,6.0,86,0.00,,,0.00,weatherlink.com 1.10,2013-08-25 08:05:00,
2013-08-25 04:20:00,63.3,59.0,30.23,SW,235,2.0,5.0,87,0.00,,,0.00,weatherlink.com 1.10,2013-08-25 08:20:00,
2013-08-25 04:35:00,63.1,59.0,30.23,SW,236,2.0,6.0,87,0.00,,,0.00,weatherlink.com 1.10,2013-08-25 08:35:00,
2013-08-25 04:50:00,63.1,60.0,30.23,WSW,249,4.0,6.0,88,0.00,,,0.00,weatherlink.com 1.10,2013-08-25 08:50:00,
2013-08-25 05:05:00,63.1,60.0,30.22,WSW,240,4.0,6.0,88,0.00,,,0.00,weatherlink.com 1.10,2013-08-25 09:05:00,
2013-08-25 05:20:00,63.1,60.0,30.22,SSW,212,4.0,7.0,88,0.00,,,0.00,weatherlink.com 1.10,2013-08-25 09:20:00,
2013-08-25 05:35:00,62.9,59.0,30.22,WSW,243,5.0,6.0,88,0.00,,,0.00,weatherlink.com 1.10,2013-08-25 09:35:00,
2013-08-25 05:50:00,62.6,59.0,30.22,SSW,200,2.0,6.0,89,0.00,,,0.00,weatherlink.com 1.10,2013-08-25 09:50:00,
2013-08-25 06:05:00,62.2,59.0,30.22,WSW,242,1.0,4.0,90,0.00,,,0.00,weatherlink.com 1.10,2013-08-25 10:05:00,
2013-08-25 06:20:00,61.7,59.0,30.22,WSW,250,3.0,6.0,91,0.00,,,0.00,weatherlink.com 1.10,2013-08-25 10:20:00,
2013-08-25 06:35:00,61.7,59.0,30.21,WSW,252,1.0,5.0,91,0.00,,,0.00,weatherlink.com 1.10,2013-08-25 10:35:00,
2013-08-25 06:50:00,62.3,59.0,30.22,SW,229,3.0,7.0,90,0.00,,,0.00,weatherlink.com 1.10,2013-08-25 10:50:00,
2013-08-25 07:05:00,62.5,60.0,30.22,SW,233,5.0,7.0,90,0.00,,,0.00,weatherlink.com 1.10,2013-08-25 11:05:00,
2013-08-25 07:20:00,63.0,60.0,30.22,WSW,239,4.0,6.0,89,0.00,,,0.00,weatherlink.com 1.10,2013-08-25 11:20:00,
2013-08-25 07:35:00,63.6,60.0,30.23,SW,232,3.0,8.0,88,0.00,,,0.00,weatherlink.com 1.10,2013-08-25 11:35:00,
2013-08-25 07:50:00,64.1,60.0,30.23,SW,233,5.0,9.0,86,0.00,,,0.00,weatherlink.com 1.10,2013-08-25 11:50:00,
2013-08-25 08:05:00,64.6,60.0,30.23,WSW,246,3.0,8.0,85,0.00,,,0.00,weatherlink.com 1.10,2013-08-25 12:05:00,
2013-08-25 08:20:00,64.8,60.0,30.24,SW,226,4.0,6.0,84,0.00,,,0.00,weatherlink.com 1.10,2013-08-25 12:20:00,
2013-08-25 08:35:00,65.3,60.0,30.25,WSW,253,2.0,5.0,84,0.00,,,0.00,weatherlink.com 1.10,2013-08-25 12:35:00,
2013-08-25 08:50:00,65.9,60.0,30.24,SW,231,4.0,7.0,82,0.00,,,0.00,weatherlink.com 1.10,2013-08-25 12:50:00,
2013-08-25 09:05:00,66.5,61.0,30.24,WSW,246,4.0,9.0,81,0.00,,,0.00,weatherlink.com 1.10,2013-08-25 13:05:00,
2013-08-25 09:20:00,67.5,61.0,30.23,WSW,245,5.0,10.0,79,0.00,,,0.00,weatherlink.com 1.10,2013-08-25 13:20:00,
2013-08-25 09:35:00,68.7,61.0,30.23,SW,232,4.0,10.0,77,0.00,,,0.00,weatherlink.com 1.10,2013-08-25 13:35:00,
2013-08-25 09:50:00,69.9,60.0,30.22,WSW,238,4.0,12.0,72,0.00,,,0.00,weatherlink.com 1.10,2013-08-25 13:50:00,
2013-08-25 10:06:00,71.4,61.0,30.22,SW,225,4.0,8.0,70,0.00,,,0.00,weatherlink.com 1.10,2013-08-25 14:06:00,
2013-08-25 10:21:00,72.4,62.0,30.20,WSW,258,2.0,12.0,70,0.00,,,0.00,weatherlink.com 1.10,2013-08-25 14:21:00,
2013-08-25 10:36:00,73.4,62.0,30.19,WSW,242,5.0,10.0,68,0.00,,,0.00,weatherlink.com 1.10,2013-08-25 14:36:00,
2013-08-25 10:51:00,74.4,62.0,30.19,SW,235,3.0,11.0,66,0.00,,,0.00,weatherlink.com 1.10,2013-08-25 14:51:00,
2013-08-25 11:06:00,75.6,63.0,30.19,WSW,243,6.0,9.0,64,0.00,,,0.00,weatherlink.com 1.10,2013-08-25 15:06:00,
2013-08-25 11:21:00,77.0,64.0,30.18,WSW,245,6.0,7.0,64,0.00,,,0.00,weatherlink.com 1.10,2013-08-25 15:21:00,
2013-08-25 11:36:00,77.6,63.0,30.18,SW,224,6.0,11.0,60,0.00,,,0.00,weatherlink.com 1.10,2013-08-25 15:36:00,
2013-08-25 11:51:00,78.2,62.0,30.17,SW,231,4.0,10.0,58,0.00,,,0.00,weatherlink.com 1.10,2013-08-25 15:51:00,
2013-08-25 12:06:00,79.4,61.0,30.17,SW,221,5.0,11.0,54,0.00,,,0.00,weatherlink.com 1.10,2013-08-25 16:06:00,
2013-08-25 12:21:00,80.4,62.0,30.16,WSW,245,6.0,12.0,54,0.00,,,0.00,weatherlink.com 1.10,2013-08-25 16:21:00,
2013-08-25 12:36:00,81.4,62.0,30.16,SW,226,4.0,14.0,52,0.00,,,0.00,weatherlink.com 1.10,2013-08-25 16:36:00,
2013-08-25 12:51:00,82.2,64.0,30.16,SW,229,4.0,12.0,54,0.00,,,0.00,weatherlink.com 1.10,2013-08-25 16:51:00,
2013-08-25 13:06:00,81.9,64.0,30.15,WSW,245,5.0,13.0,54,0.00,,,0.00,weatherlink.com 1.10,2013-08-25 17:06:00,
2013-08-25 13:21:00,82.7,65.0,30.14,West,265,5.0,13.0,56,0.00,,,0.00,weatherlink.com 1.10,2013-08-25 17:21:00,
2013-08-25 13:36:00,84.1,66.0,30.13,SW,215,4.0,8.0,55,0.00,,,0.00,weatherlink.com 1.10,2013-08-25 17:36:00,
2013-08-25 13:51:00,84.3,66.0,30.13,SW,232,4.0,15.0,55,0.00,,,0.00,weatherlink.com 1.10,2013-08-25 17:51:00,
2013-08-25 14:06:00,84.2,66.0,30.12,WSW,238,5.0,17.0,55,0.00,,,0.00,weatherlink.com 1.10,2013-08-25 18:06:00,
2013-08-25 14:21:00,83.6,66.0,30.12,SW,232,3.0,12.0,56,0.00,,,0.00,weatherlink.com 1.10,2013-08-25 18:21:00,
2013-08-25 14:36:00,83.5,66.0,30.11,WSW,238,8.0,10.0,56,0.00,,,0.00,weatherlink.com 1.10,2013-08-25 18:36:00,
2013-08-25 14:52:00,83.9,67.0,30.10,WSW,252,6.0,10.0,57,0.00,,,0.00,weatherlink.com 1.10,2013-08-25 18:52:00,
2013-08-25 15:07:00,84.3,67.0,30.09,SW,235,7.0,15.0,56,0.00,,,0.00,weatherlink.com 1.10,2013-08-25 19:07:00,
2013-08-25 15:22:00,85.8,68.0,30.08,SW,228,6.0,14.0,55,0.00,,,0.00,weatherlink.com 1.10,2013-08-25 19:22:00,
2013-08-25 15:37:00,85.9,68.0,30.08,SW,228,8.0,15.0,55,0.00,,,0.00,weatherlink.com 1.10,2013-08-25 19:37:00,
2013-08-25 15:52:00,86.2,68.0,30.07,SW,224,6.0,16.0,54,0.00,,,0.00,weatherlink.com 1.10,2013-08-25 19:52:00,
2013-08-25 16:07:00,86.5,68.0,30.06,West,261,6.0,15.0,54,0.00,,,0.00,weatherlink.com 1.10,2013-08-25 20:07:00,
2013-08-25 16:22:00,86.9,69.0,30.06,WSW,248,6.0,16.0,55,0.00,,,0.00,weatherlink.com 1.10,2013-08-25 20:22:00,
2013-08-25 16:37:00,87.1,68.0,30.05,SW,229,9.0,18.0,54,0.00,,,0.00,weatherlink.com 1.10,2013-08-25 20:37:00,
2013-08-25 16:52:00,87.4,68.0,30.05,SW,231,8.0,14.0,53,0.00,,,0.00,weatherlink.com 1.10,2013-08-25 20:52:00,
2013-08-25 17:07:00,87.7,68.0,30.04,SW,227,12.0,12.0,52,0.00,,,0.00,weatherlink.com 1.10,2013-08-25 21:07:00,
2013-08-25 17:22:00,87.8,69.0,30.04,WSW,239,6.0,13.0,53,0.00,,,0.00,weatherlink.com 1.10,2013-08-25 21:22:00,
2013-08-25 17:37:00,87.7,68.0,30.04,WSW,245,6.0,16.0,52,0.00,,,0.00,weatherlink.com 1.10,2013-08-25 21:37:00,
2013-08-25 17:52:00,87.8,69.0,30.04,WSW,242,2.0,14.0,53,0.00,,,0.00,weatherlink.com 1.10,2013-08-25 21:52:00,
2013-08-25 18:07:00,87.5,68.0,30.03,West,259,6.0,17.0,52,0.00,,,0.00,weatherlink.com 1.10,2013-08-25 22:07:00,
2013-08-25 18:22:00,87.2,68.0,30.03,WSW,250,8.0,18.0,53,0.00,,,0.00,weatherlink.com 1.10,2013-08-25 22:22:00,
2013-08-25 18:37:00,86.9,68.0,30.03,SW,236,9.0,16.0,53,0.00,,,0.00,weatherlink.com 1.10,2013-08-25 22:37:00,
2013-08-25 18:52:00,86.7,68.0,30.03,WSW,239,8.0,13.0,53,0.00,,,0.00,weatherlink.com 1.10,2013-08-25 22:52:00,
2013-08-25 19:07:00,86.3,68.0,30.03,SW,226,5.0,14.0,55,0.00,,,0.00,weatherlink.com 1.10,2013-08-25 23:07:00,
2013-08-25 19:22:00,85.7,68.0,30.03,West,265,6.0,12.0,55,0.00,,,0.00,weatherlink.com 1.10,2013-08-25 23:22:00,
2013-08-25 19:37:00,85.2,68.0,30.03,WSW,240,3.0,10.0,56,0.00,,,0.00,weatherlink.com 1.10,2013-08-25 23:37:00,
2013-08-25 19:52:00,84.5,68.0,30.04,WSW,249,6.0,11.0,57,0.00,,,0.00,weatherlink.com 1.10,2013-08-25 23:52:00,
2013-08-25 20:07:00,83.6,67.0,30.04,WSW,253,3.0,9.0,58,0.00,,,0.00,weatherlink.com 1.10,2013-08-26 00:07:00,
2013-08-25 20:22:00,82.9,68.0,30.05,SW,229,3.0,10.0,60,0.00,,,0.00,weatherlink.com 1.10,2013-08-26 00:22:00,
2013-08-25 20:37:00,82.1,67.0,30.04,SW,225,5.0,7.0,61,0.00,,,0.00,weatherlink.com 1.10,2013-08-26 00:37:00,
2013-08-25 20:52:00,81.3,67.0,30.04,SW,236,4.0,9.0,63,0.00,,,0.00,weatherlink.com 1.10,2013-08-26 00:52:00,
2013-08-25 21:07:00,80.8,67.0,30.05,WSW,249,3.0,7.0,64,0.00,,,0.00,weatherlink.com 1.10,2013-08-26 01:07:00,
2013-08-25 21:22:00,80.2,67.0,30.05,SW,228,6.0,8.0,65,0.00,,,0.00,weatherlink.com 1.10,2013-08-26 01:22:00,
2013-08-25 21:37:00,79.7,67.0,30.06,West,260,3.0,6.0,66,0.00,,,0.00,weatherlink.com 1.10,2013-08-26 01:37:00,
2013-08-25 21:52:00,79.1,67.0,30.06,SW,231,5.0,7.0,67,0.00,,,0.00,weatherlink.com 1.10,2013-08-26 01:52:00,
2013-08-25 22:07:00,78.6,67.0,30.06,WSW,242,4.0,6.0,68,0.00,,,0.00,weatherlink.com 1.10,2013-08-26 02:07:00,
2013-08-25 22:23:00,78.2,67.0,30.06,WSW,255,3.0,7.0,68,0.00,,,0.00,weatherlink.com 1.10,2013-08-26 02:23:00,
2013-08-25 22:37:00,77.9,67.0,30.06,WSW,239,4.0,9.0,69,0.00,,,0.00,weatherlink.com 1.10,2013-08-26 02:37:00,
2013-08-25 22:52:00,77.7,67.0,30.06,WSW,243,5.0,7.0,70,0.00,,,0.00,weatherlink.com 1.10,2013-08-26 02:52:00,
2013-08-25 23:07:00,77.2,67.0,30.06,SW,231,6.0,10.0,71,0.00,,,0.00,weatherlink.com 1.10,2013-08-26 03:07:00,
2013-08-25 23:22:00,76.9,67.0,30.07,WSW,239,6.0,11.0,72,0.00,,,0.00,weatherlink.com 1.10,2013-08-26 03:22:00,
2013-08-25 23:37:00,76.6,67.0,30.06,SW,219,4.0,8.0,72,0.00,,,0.00,weatherlink.com 1.10,2013-08-26 03:37:00,
2013-08-25 23:52:00,76.2,67.0,30.05,WSW,243,7.0,10.0,73,0.00,,,0.00,weatherlink.com 1.10,2013-08-26 03:52:00,